sensor_id;sensor_type;location;lat;lon;timestamp;temperature;humidity
15926;DHT22;8062;53.882;10.642;2023-04-07T00:01:11;4.40;96.40
15926;DHT22;8062;53.882;10.642;2023-04-07T00:02:31;4.40;96.10
15926;DHT22;8062;53.882;10.642;2023-04-07T00:03:51;4.40;96.10
15926;DHT22;8062;53.882;10.642;2023-04-07T00:05:10;4.30;96.20
15926;DHT22;8062;53.882;10.642;2023-04-07T00:06:30;4.40;96.00
15926;DHT22;8062;53.882;10.642;2023-04-07T00:07:49;4.30;96.10
15926;DHT22;8062;53.882;10.642;2023-04-07T00:09:09;4.30;96.00
15926;DHT22;8062;53.882;10.642;2023-04-07T00:10:29;4.30;96.00
15926;DHT22;8062;53.882;10.642;2023-04-07T00:11:49;4.30;96.20
15926;DHT22;8062;53.882;10.642;2023-04-07T00:13:10;4.30;96.10
15926;DHT22;8062;53.882;10.642;2023-04-07T00:14:29;4.30;95.90
15926;DHT22;8062;53.882;10.642;2023-04-07T00:15:49;4.30;96.10
15926;DHT22;8062;53.882;10.642;2023-04-07T00:17:08;4.30;96.20
15926;DHT22;8062;53.882;10.642;2023-04-07T00:18:28;4.30;96.40
15926;DHT22;8062;53.882;10.642;2023-04-07T00:19:47;4.20;96.50
15926;DHT22;8062;53.882;10.642;2023-04-07T00:21:06;4.20;96.60
15926;DHT22;8062;53.882;10.642;2023-04-07T00:22:26;4.10;96.70
15926;DHT22;8062;53.882;10.642;2023-04-07T00:23:45;4.10;97.00
15926;DHT22;8062;53.882;10.642;2023-04-07T00:25:06;4.10;96.90
15926;DHT22;8062;53.882;10.642;2023-04-07T00:26:26;4.10;96.60
15926;DHT22;8062;53.882;10.642;2023-04-07T00:27:49;4.10;96.70
15926;DHT22;8062;53.882;10.642;2023-04-07T00:29:09;4.10;96.50
15926;DHT22;8062;53.882;10.642;2023-04-07T00:30:28;4.20;96.30
15926;DHT22;8062;53.882;10.642;2023-04-07T00:31:48;4.10;97.00
15926;DHT22;8062;53.882;10.642;2023-04-07T00:33:08;4.10;96.80
15926;DHT22;8062;53.882;10.642;2023-04-07T00:34:28;4.10;96.70
15926;DHT22;8062;53.882;10.642;2023-04-07T00:35:47;4.10;97.00
15926;DHT22;8062;53.882;10.642;2023-04-07T00:37:07;4.10;97.30
15926;DHT22;8062;53.882;10.642;2023-04-07T00:38:27;4.00;97.60
15926;DHT22;8062;53.882;10.642;2023-04-07T00:39:46;3.90;97.80
15926;DHT22;8062;53.882;10.642;2023-04-07T00:41:06;3.80;98.00
15926;DHT22;8062;53.882;10.642;2023-04-07T00:42:25;3.90;97.50
15926;DHT22;8062;53.882;10.642;2023-04-07T00:43:45;3.90;97.20
15926;DHT22;8062;53.882;10.642;2023-04-07T00:45:05;3.80;97.70
15926;DHT22;8062;53.882;10.642;2023-04-07T00:46:25;3.80;97.40
15926;DHT22;8062;53.882;10.642;2023-04-07T00:47:45;3.70;98.10
15926;DHT22;8062;53.882;10.642;2023-04-07T00:49:05;3.80;97.80
15926;DHT22;8062;53.882;10.642;2023-04-07T00:50:25;3.70;97.70
15926;DHT22;8062;53.882;10.642;2023-04-07T00:51:45;3.70;97.50
15926;DHT22;8062;53.882;10.642;2023-04-07T00:53:05;3.70;97.90
15926;DHT22;8062;53.882;10.642;2023-04-07T00:54:25;3.60;98.20
15926;DHT22;8062;53.882;10.642;2023-04-07T00:55:44;3.60;98.40
15926;DHT22;8062;53.882;10.642;2023-04-07T00:57:04;3.60;98.10
15926;DHT22;8062;53.882;10.642;2023-04-07T00:58:25;3.50;98.40
15926;DHT22;8062;53.882;10.642;2023-04-07T00:59:44;3.60;98.20
15926;DHT22;8062;53.882;10.642;2023-04-07T01:01:15;3.50;98.30
15926;DHT22;8062;53.882;10.642;2023-04-07T01:02:41;3.40;99.00
15926;DHT22;8062;53.882;10.642;2023-04-07T01:04:08;3.40;98.60
15926;DHT22;8062;53.882;10.642;2023-04-07T01:05:49;3.40;99.00
15926;DHT22;8062;53.882;10.642;2023-04-07T01:07:23;3.40;98.60
15926;DHT22;8062;53.882;10.642;2023-04-07T01:09:06;3.50;98.60
15926;DHT22;8062;53.882;10.642;2023-04-07T01:12:17;3.50;98.20
15926;DHT22;8062;53.882;10.642;2023-04-07T01:13:48;3.40;99.00
15926;DHT22;8062;53.882;10.642;2023-04-07T01:15:17;3.40;99.00
15926;DHT22;8062;53.882;10.642;2023-04-07T01:16:49;3.40;99.00
15926;DHT22;8062;53.882;10.642;2023-04-07T01:18:19;3.40;98.70
15926;DHT22;8062;53.882;10.642;2023-04-07T01:20:03;3.40;98.70
15926;DHT22;8062;53.882;10.642;2023-04-07T01:21:27;3.30;98.80
15926;DHT22;8062;53.882;10.642;2023-04-07T01:22:53;3.30;99.10
15926;DHT22;8062;53.882;10.642;2023-04-07T01:24:30;3.40;99.00
15926;DHT22;8062;53.882;10.642;2023-04-07T01:26:12;3.40;98.50
15926;DHT22;8062;53.882;10.642;2023-04-07T01:27:53;3.40;98.60
15926;DHT22;8062;53.882;10.642;2023-04-07T01:29:36;3.30;98.70
15926;DHT22;8062;53.882;10.642;2023-04-07T01:30:56;3.30;99.10
15926;DHT22;8062;53.882;10.642;2023-04-07T01:32:17;3.20;99.00
15926;DHT22;8062;53.882;10.642;2023-04-07T01:33:40;3.20;99.40
15926;DHT22;8062;53.882;10.642;2023-04-07T01:35:03;3.20;99.40
15926;DHT22;8062;53.882;10.642;2023-04-07T01:36:26;3.20;99.30
15926;DHT22;8062;53.882;10.642;2023-04-07T01:37:47;3.20;99.40
15926;DHT22;8062;53.882;10.642;2023-04-07T01:39:08;3.10;99.40
15926;DHT22;8062;53.882;10.642;2023-04-07T01:40:30;3.10;99.30
15926;DHT22;8062;53.882;10.642;2023-04-07T01:41:51;3.10;99.10
15926;DHT22;8062;53.882;10.642;2023-04-07T01:43:12;3.20;99.30
15926;DHT22;8062;53.882;10.642;2023-04-07T01:44:32;3.10;99.40
15926;DHT22;8062;53.882;10.642;2023-04-07T01:45:53;3.20;99.20
15926;DHT22;8062;53.882;10.642;2023-04-07T01:47:14;3.20;99.10
15926;DHT22;8062;53.882;10.642;2023-04-07T01:48:34;3.20;99.00
15926;DHT22;8062;53.882;10.642;2023-04-07T01:50:00;3.20;99.00
15926;DHT22;8062;53.882;10.642;2023-04-07T01:51:23;3.20;99.10
15926;DHT22;8062;53.882;10.642;2023-04-07T01:52:43;3.10;99.20
15926;DHT22;8062;53.882;10.642;2023-04-07T01:54:04;3.10;99.10
15926;DHT22;8062;53.882;10.642;2023-04-07T01:55:24;3.10;99.00
15926;DHT22;8062;53.882;10.642;2023-04-07T01:56:53;3.10;99.00
15926;DHT22;8062;53.882;10.642;2023-04-07T01:58:12;3.10;99.00
15926;DHT22;8062;53.882;10.642;2023-04-07T01:59:35;3.20;98.50
15926;DHT22;8062;53.882;10.642;2023-04-07T02:00:56;3.20;98.80
15926;DHT22;8062;53.882;10.642;2023-04-07T02:02:16;3.20;98.90
15926;DHT22;8062;53.882;10.642;2023-04-07T02:03:48;3.20;98.70
15926;DHT22;8062;53.882;10.642;2023-04-07T02:05:12;3.20;98.70
15926;DHT22;8062;53.882;10.642;2023-04-07T02:06:40;3.20;98.90
15926;DHT22;8062;53.882;10.642;2023-04-07T02:08:04;3.10;98.90
15926;DHT22;8062;53.882;10.642;2023-04-07T02:09:26;3.10;98.90
15926;DHT22;8062;53.882;10.642;2023-04-07T02:10:48;3.10;99.00
15926;DHT22;8062;53.882;10.642;2023-04-07T02:12:11;3.10;99.20
15926;DHT22;8062;53.882;10.642;2023-04-07T02:13:37;3.10;99.40
15926;DHT22;8062;53.882;10.642;2023-04-07T02:14:59;3.10;99.00
15926;DHT22;8062;53.882;10.642;2023-04-07T02:16:19;3.00;99.20
15926;DHT22;8062;53.882;10.642;2023-04-07T02:17:42;3.00;99.20
15926;DHT22;8062;53.882;10.642;2023-04-07T02:19:03;3.00;99.40
15926;DHT22;8062;53.882;10.642;2023-04-07T02:20:23;3.00;99.40
15926;DHT22;8062;53.882;10.642;2023-04-07T02:21:43;2.90;99.60
15926;DHT22;8062;53.882;10.642;2023-04-07T02:23:06;2.90;99.90
15926;DHT22;8062;53.882;10.642;2023-04-07T02:24:26;2.90;99.80
15926;DHT22;8062;53.882;10.642;2023-04-07T02:25:46;2.90;99.70
15926;DHT22;8062;53.882;10.642;2023-04-07T02:27:06;2.90;99.80
15926;DHT22;8062;53.882;10.642;2023-04-07T02:28:25;2.80;99.90
15926;DHT22;8062;53.882;10.642;2023-04-07T02:29:45;2.80;99.80
15926;DHT22;8062;53.882;10.642;2023-04-07T02:31:05;2.80;99.90
15926;DHT22;8062;53.882;10.642;2023-04-07T02:32:25;2.80;99.90
15926;DHT22;8062;53.882;10.642;2023-04-07T02:33:44;2.80;99.90
15926;DHT22;8062;53.882;10.642;2023-04-07T02:35:05;2.70;99.90
15926;DHT22;8062;53.882;10.642;2023-04-07T02:36:27;2.60;99.90
15926;DHT22;8062;53.882;10.642;2023-04-07T02:37:47;2.70;99.90
15926;DHT22;8062;53.882;10.642;2023-04-07T02:39:07;2.70;99.90
15926;DHT22;8062;53.882;10.642;2023-04-07T02:40:27;2.60;99.90
15926;DHT22;8062;53.882;10.642;2023-04-07T02:41:47;2.50;99.90
15926;DHT22;8062;53.882;10.642;2023-04-07T02:43:06;2.50;99.90
15926;DHT22;8062;53.882;10.642;2023-04-07T02:44:26;2.50;99.90
15926;DHT22;8062;53.882;10.642;2023-04-07T02:45:45;2.40;99.90
15926;DHT22;8062;53.882;10.642;2023-04-07T02:47:05;2.40;99.90
15926;DHT22;8062;53.882;10.642;2023-04-07T02:48:24;2.30;99.90
15926;DHT22;8062;53.882;10.642;2023-04-07T02:49:44;2.30;99.90
15926;DHT22;8062;53.882;10.642;2023-04-07T02:51:03;2.20;99.90
15926;DHT22;8062;53.882;10.642;2023-04-07T02:52:23;2.20;99.90
15926;DHT22;8062;53.882;10.642;2023-04-07T02:53:43;2.10;99.90
15926;DHT22;8062;53.882;10.642;2023-04-07T02:55:03;2.00;99.90
15926;DHT22;8062;53.882;10.642;2023-04-07T02:56:23;2.00;99.90
15926;DHT22;8062;53.882;10.642;2023-04-07T02:57:43;2.00;99.90
15926;DHT22;8062;53.882;10.642;2023-04-07T02:59:19;2.00;99.90
15926;DHT22;8062;53.882;10.642;2023-04-07T03:00:39;2.00;99.90
15926;DHT22;8062;53.882;10.642;2023-04-07T03:02:03;2.10;99.90
15926;DHT22;8062;53.882;10.642;2023-04-07T03:03:22;2.00;99.90
15926;DHT22;8062;53.882;10.642;2023-04-07T03:04:56;2.00;99.90
15926;DHT22;8062;53.882;10.642;2023-04-07T03:06:21;1.90;99.90
15926;DHT22;8062;53.882;10.642;2023-04-07T03:07:58;1.90;99.90
15926;DHT22;8062;53.882;10.642;2023-04-07T03:09:18;1.90;99.90
15926;DHT22;8062;53.882;10.642;2023-04-07T03:10:37;1.80;99.90
15926;DHT22;8062;53.882;10.642;2023-04-07T03:11:57;1.80;99.90
15926;DHT22;8062;53.882;10.642;2023-04-07T03:13:20;1.70;99.90
15926;DHT22;8062;53.882;10.642;2023-04-07T03:14:39;1.70;99.90
15926;DHT22;8062;53.882;10.642;2023-04-07T03:15:59;1.60;99.90
15926;DHT22;8062;53.882;10.642;2023-04-07T03:17:23;1.70;99.90
15926;DHT22;8062;53.882;10.642;2023-04-07T03:18:43;1.60;99.90
15926;DHT22;8062;53.882;10.642;2023-04-07T03:20:03;1.60;99.90
15926;DHT22;8062;53.882;10.642;2023-04-07T03:21:25;1.50;99.90
15926;DHT22;8062;53.882;10.642;2023-04-07T03:22:44;1.50;99.90
15926;DHT22;8062;53.882;10.642;2023-04-07T03:24:11;1.50;99.90
15926;DHT22;8062;53.882;10.642;2023-04-07T03:25:31;1.50;99.90
15926;DHT22;8062;53.882;10.642;2023-04-07T03:26:52;1.60;99.90
15926;DHT22;8062;53.882;10.642;2023-04-07T03:28:28;1.60;99.90
15926;DHT22;8062;53.882;10.642;2023-04-07T03:29:48;1.60;99.90
15926;DHT22;8062;53.882;10.642;2023-04-07T03:31:10;1.60;99.90
15926;DHT22;8062;53.882;10.642;2023-04-07T03:32:29;1.70;99.90
15926;DHT22;8062;53.882;10.642;2023-04-07T03:33:49;1.70;99.90
15926;DHT22;8062;53.882;10.642;2023-04-07T03:35:09;1.70;99.90
15926;DHT22;8062;53.882;10.642;2023-04-07T03:36:30;1.70;99.90
15926;DHT22;8062;53.882;10.642;2023-04-07T03:37:53;1.80;99.90
15926;DHT22;8062;53.882;10.642;2023-04-07T03:39:13;1.70;99.90
15926;DHT22;8062;53.882;10.642;2023-04-07T03:40:32;1.70;99.90
15926;DHT22;8062;53.882;10.642;2023-04-07T03:41:54;1.70;99.90
15926;DHT22;8062;53.882;10.642;2023-04-07T03:43:15;1.70;99.90
15926;DHT22;8062;53.882;10.642;2023-04-07T03:44:35;1.70;99.90
15926;DHT22;8062;53.882;10.642;2023-04-07T03:45:55;1.60;99.90
15926;DHT22;8062;53.882;10.642;2023-04-07T03:47:17;1.60;99.90
15926;DHT22;8062;53.882;10.642;2023-04-07T03:48:42;1.60;99.90
15926;DHT22;8062;53.882;10.642;2023-04-07T03:50:03;1.60;99.90
15926;DHT22;8062;53.882;10.642;2023-04-07T03:51:27;1.60;99.90
15926;DHT22;8062;53.882;10.642;2023-04-07T03:52:48;1.60;99.90
15926;DHT22;8062;53.882;10.642;2023-04-07T03:54:16;1.60;99.90
15926;DHT22;8062;53.882;10.642;2023-04-07T03:55:37;1.60;99.90
15926;DHT22;8062;53.882;10.642;2023-04-07T03:57:04;1.60;99.90
15926;DHT22;8062;53.882;10.642;2023-04-07T03:58:27;1.60;99.90
15926;DHT22;8062;53.882;10.642;2023-04-07T03:59:46;1.60;99.90
15926;DHT22;8062;53.882;10.642;2023-04-07T04:01:09;1.60;99.90
15926;DHT22;8062;53.882;10.642;2023-04-07T04:02:29;1.70;99.90
15926;DHT22;8062;53.882;10.642;2023-04-07T04:03:50;1.70;99.90
15926;DHT22;8062;53.882;10.642;2023-04-07T04:05:20;1.70;99.90
15926;DHT22;8062;53.882;10.642;2023-04-07T04:06:40;1.70;99.90
15926;DHT22;8062;53.882;10.642;2023-04-07T04:08:09;1.60;99.90
15926;DHT22;8062;53.882;10.642;2023-04-07T04:09:31;1.70;99.90
15926;DHT22;8062;53.882;10.642;2023-04-07T04:10:52;1.80;99.90
15926;DHT22;8062;53.882;10.642;2023-04-07T04:12:12;1.80;99.90
15926;DHT22;8062;53.882;10.642;2023-04-07T04:13:39;1.80;99.90
15926;DHT22;8062;53.882;10.642;2023-04-07T04:14:59;1.80;99.90
15926;DHT22;8062;53.882;10.642;2023-04-07T04:16:20;1.80;99.90
15926;DHT22;8062;53.882;10.642;2023-04-07T04:17:41;1.80;99.90
15926;DHT22;8062;53.882;10.642;2023-04-07T04:19:02;1.80;99.90
15926;DHT22;8062;53.882;10.642;2023-04-07T04:20:23;1.70;99.90
15926;DHT22;8062;53.882;10.642;2023-04-07T04:21:43;1.80;99.90
15926;DHT22;8062;53.882;10.642;2023-04-07T04:23:03;1.80;99.90
15926;DHT22;8062;53.882;10.642;2023-04-07T04:24:23;1.70;99.90
15926;DHT22;8062;53.882;10.642;2023-04-07T04:25:42;1.70;99.90
15926;DHT22;8062;53.882;10.642;2023-04-07T04:27:04;1.70;99.90
15926;DHT22;8062;53.882;10.642;2023-04-07T04:28:24;1.60;99.90
15926;DHT22;8062;53.882;10.642;2023-04-07T04:29:45;1.70;99.90
15926;DHT22;8062;53.882;10.642;2023-04-07T04:31:07;1.70;99.90
15926;DHT22;8062;53.882;10.642;2023-04-07T04:32:32;1.70;99.90
15926;DHT22;8062;53.882;10.642;2023-04-07T04:33:52;1.70;99.90
15926;DHT22;8062;53.882;10.642;2023-04-07T04:35:12;1.70;99.90
15926;DHT22;8062;53.882;10.642;2023-04-07T04:36:41;1.80;99.90
15926;DHT22;8062;53.882;10.642;2023-04-07T04:38:01;1.70;99.90
15926;DHT22;8062;53.882;10.642;2023-04-07T04:39:21;1.70;99.90
15926;DHT22;8062;53.882;10.642;2023-04-07T04:40:41;1.70;99.90
15926;DHT22;8062;53.882;10.642;2023-04-07T04:42:00;1.70;99.90
15926;DHT22;8062;53.882;10.642;2023-04-07T04:43:25;1.80;99.90
15926;DHT22;8062;53.882;10.642;2023-04-07T04:44:45;1.70;99.90
15926;DHT22;8062;53.882;10.642;2023-04-07T04:46:06;1.70;99.90
15926;DHT22;8062;53.882;10.642;2023-04-07T04:47:31;1.80;99.90
15926;DHT22;8062;53.882;10.642;2023-04-07T04:48:51;1.70;99.90
15926;DHT22;8062;53.882;10.642;2023-04-07T04:50:13;1.70;99.90
15926;DHT22;8062;53.882;10.642;2023-04-07T04:51:34;1.70;99.90
15926;DHT22;8062;53.882;10.642;2023-04-07T04:52:59;1.80;99.90
15926;DHT22;8062;53.882;10.642;2023-04-07T04:54:19;1.80;99.90
15926;DHT22;8062;53.882;10.642;2023-04-07T04:55:40;1.70;99.90
15926;DHT22;8062;53.882;10.642;2023-04-07T04:57:02;1.80;99.90
15926;DHT22;8062;53.882;10.642;2023-04-07T04:58:22;1.70;99.90
15926;DHT22;8062;53.882;10.642;2023-04-07T04:59:45;1.80;99.90
15926;DHT22;8062;53.882;10.642;2023-04-07T05:01:05;1.80;99.90
15926;DHT22;8062;53.882;10.642;2023-04-07T05:02:31;1.80;99.90
15926;DHT22;8062;53.882;10.642;2023-04-07T05:03:50;1.80;99.90
15926;DHT22;8062;53.882;10.642;2023-04-07T05:05:15;1.90;99.90
15926;DHT22;8062;53.882;10.642;2023-04-07T05:06:36;1.90;99.90
15926;DHT22;8062;53.882;10.642;2023-04-07T05:08:01;1.80;99.90
15926;DHT22;8062;53.882;10.642;2023-04-07T05:09:26;1.80;99.90
15926;DHT22;8062;53.882;10.642;2023-04-07T05:10:46;1.90;99.90
15926;DHT22;8062;53.882;10.642;2023-04-07T05:12:06;1.90;99.90
15926;DHT22;8062;53.882;10.642;2023-04-07T05:13:31;2.00;99.90
15926;DHT22;8062;53.882;10.642;2023-04-07T05:14:54;2.00;99.90
15926;DHT22;8062;53.882;10.642;2023-04-07T05:16:13;2.00;99.90
15926;DHT22;8062;53.882;10.642;2023-04-07T05:17:33;2.00;99.90
15926;DHT22;8062;53.882;10.642;2023-04-07T05:18:54;2.00;99.90
15926;DHT22;8062;53.882;10.642;2023-04-07T05:20:16;2.10;99.90
15926;DHT22;8062;53.882;10.642;2023-04-07T05:21:35;2.10;99.90
15926;DHT22;8062;53.882;10.642;2023-04-07T05:22:56;2.10;99.90
15926;DHT22;8062;53.882;10.642;2023-04-07T05:24:25;2.10;99.90
15926;DHT22;8062;53.882;10.642;2023-04-07T05:25:49;2.10;99.90
15926;DHT22;8062;53.882;10.642;2023-04-07T05:27:08;2.20;99.90
15926;DHT22;8062;53.882;10.642;2023-04-07T05:28:28;2.20;99.90
15926;DHT22;8062;53.882;10.642;2023-04-07T05:29:51;2.30;99.90
15926;DHT22;8062;53.882;10.642;2023-04-07T05:31:17;2.30;99.90
15926;DHT22;8062;53.882;10.642;2023-04-07T05:32:39;2.30;99.90
15926;DHT22;8062;53.882;10.642;2023-04-07T05:34:07;2.40;99.90
15926;DHT22;8062;53.882;10.642;2023-04-07T05:35:31;2.40;99.90
15926;DHT22;8062;53.882;10.642;2023-04-07T05:36:52;2.40;99.90
15926;DHT22;8062;53.882;10.642;2023-04-07T05:38:13;2.40;99.90
15926;DHT22;8062;53.882;10.642;2023-04-07T05:39:35;2.50;99.90
15926;DHT22;8062;53.882;10.642;2023-04-07T05:40:56;2.50;99.90
15926;DHT22;8062;53.882;10.642;2023-04-07T05:42:19;2.50;99.90
15926;DHT22;8062;53.882;10.642;2023-04-07T05:43:43;2.60;99.90
15926;DHT22;8062;53.882;10.642;2023-04-07T05:45:03;2.70;99.90
15926;DHT22;8062;53.882;10.642;2023-04-07T05:46:24;2.70;99.90
15926;DHT22;8062;53.882;10.642;2023-04-07T05:47:48;2.70;99.90
15926;DHT22;8062;53.882;10.642;2023-04-07T05:49:13;2.80;99.90
15926;DHT22;8062;53.882;10.642;2023-04-07T05:50:32;2.80;99.90
15926;DHT22;8062;53.882;10.642;2023-04-07T05:51:56;2.90;99.90
15926;DHT22;8062;53.882;10.642;2023-04-07T05:53:16;2.90;99.90
15926;DHT22;8062;53.882;10.642;2023-04-07T05:54:35;2.90;99.90
15926;DHT22;8062;53.882;10.642;2023-04-07T05:55:57;2.90;99.90
15926;DHT22;8062;53.882;10.642;2023-04-07T05:57:30;2.90;99.90
15926;DHT22;8062;53.882;10.642;2023-04-07T05:58:53;3.10;99.90
15926;DHT22;8062;53.882;10.642;2023-04-07T06:00:13;3.10;99.90
15926;DHT22;8062;53.882;10.642;2023-04-07T06:01:36;3.20;99.90
15926;DHT22;8062;53.882;10.642;2023-04-07T06:02:56;3.20;99.90
15926;DHT22;8062;53.882;10.642;2023-04-07T06:04:17;3.40;99.90
15926;DHT22;8062;53.882;10.642;2023-04-07T06:05:39;3.50;99.90
15926;DHT22;8062;53.882;10.642;2023-04-07T06:07:02;3.50;99.90
15926;DHT22;8062;53.882;10.642;2023-04-07T06:08:22;3.60;99.90
15926;DHT22;8062;53.882;10.642;2023-04-07T06:09:41;3.60;99.90
15926;DHT22;8062;53.882;10.642;2023-04-07T06:11:01;3.70;99.90
15926;DHT22;8062;53.882;10.642;2023-04-07T06:12:21;3.70;99.90
15926;DHT22;8062;53.882;10.642;2023-04-07T06:13:41;3.80;99.10
15926;DHT22;8062;53.882;10.642;2023-04-07T06:15:01;3.90;99.60
15926;DHT22;8062;53.882;10.642;2023-04-07T06:16:22;3.90;99.90
15926;DHT22;8062;53.882;10.642;2023-04-07T06:17:41;4.00;99.70
15926;DHT22;8062;53.882;10.642;2023-04-07T06:19:04;4.10;98.60
15926;DHT22;8062;53.882;10.642;2023-04-07T06:20:26;4.10;98.40
15926;DHT22;8062;53.882;10.642;2023-04-07T06:21:46;4.20;98.80
15926;DHT22;8062;53.882;10.642;2023-04-07T06:23:06;4.20;99.60
15926;DHT22;8062;53.882;10.642;2023-04-07T06:24:26;4.30;98.70
15926;DHT22;8062;53.882;10.642;2023-04-07T06:25:46;4.40;97.50
15926;DHT22;8062;53.882;10.642;2023-04-07T06:27:09;4.50;98.00
15926;DHT22;8062;53.882;10.642;2023-04-07T06:28:29;4.60;98.70
15926;DHT22;8062;53.882;10.642;2023-04-07T06:29:50;4.70;98.50
15926;DHT22;8062;53.882;10.642;2023-04-07T06:31:10;4.90;96.90
15926;DHT22;8062;53.882;10.642;2023-04-07T06:32:31;5.10;98.00
15926;DHT22;8062;53.882;10.642;2023-04-07T06:33:51;5.30;97.10
15926;DHT22;8062;53.882;10.642;2023-04-07T06:35:11;5.50;96.70
15926;DHT22;8062;53.882;10.642;2023-04-07T06:36:30;5.70;95.80
15926;DHT22;8062;53.882;10.642;2023-04-07T06:37:51;6.00;94.80
15926;DHT22;8062;53.882;10.642;2023-04-07T06:39:11;6.60;93.90
15926;DHT22;8062;53.882;10.642;2023-04-07T06:40:30;7.10;94.00
15926;DHT22;8062;53.882;10.642;2023-04-07T06:41:49;7.60;91.30
15926;DHT22;8062;53.882;10.642;2023-04-07T06:43:09;8.10;91.70
15926;DHT22;8062;53.882;10.642;2023-04-07T06:44:33;8.50;90.10
15926;DHT22;8062;53.882;10.642;2023-04-07T06:45:53;8.90;87.10
15926;DHT22;8062;53.882;10.642;2023-04-07T06:47:12;9.10;87.30
15926;DHT22;8062;53.882;10.642;2023-04-07T06:48:32;9.20;85.60
15926;DHT22;8062;53.882;10.642;2023-04-07T06:49:51;9.60;84.50
15926;DHT22;8062;53.882;10.642;2023-04-07T06:51:11;9.80;83.80
15926;DHT22;8062;53.882;10.642;2023-04-07T06:52:30;10.00;81.30
15926;DHT22;8062;53.882;10.642;2023-04-07T06:53:50;10.10;83.80
15926;DHT22;8062;53.882;10.642;2023-04-07T06:55:09;10.30;84.40
15926;DHT22;8062;53.882;10.642;2023-04-07T06:56:29;10.50;82.00
15926;DHT22;8062;53.882;10.642;2023-04-07T06:57:49;10.90;85.20
15926;DHT22;8062;53.882;10.642;2023-04-07T06:59:10;11.10;78.00
15926;DHT22;8062;53.882;10.642;2023-04-07T07:00:29;11.10;78.20
15926;DHT22;8062;53.882;10.642;2023-04-07T07:01:49;10.90;77.90
15926;DHT22;8062;53.882;10.642;2023-04-07T07:03:09;11.20;79.60
15926;DHT22;8062;53.882;10.642;2023-04-07T07:04:28;11.50;81.90
15926;DHT22;8062;53.882;10.642;2023-04-07T07:05:48;11.60;79.30
15926;DHT22;8062;53.882;10.642;2023-04-07T07:07:07;11.70;77.40
15926;DHT22;8062;53.882;10.642;2023-04-07T07:08:27;11.70;76.90
15926;DHT22;8062;53.882;10.642;2023-04-07T07:09:47;11.60;74.40
15926;DHT22;8062;53.882;10.642;2023-04-07T07:11:07;11.30;74.60
15926;DHT22;8062;53.882;10.642;2023-04-07T07:12:26;11.30;77.70
15926;DHT22;8062;53.882;10.642;2023-04-07T07:13:45;11.20;77.90
15926;DHT22;8062;53.882;10.642;2023-04-07T07:15:06;11.40;78.50
15926;DHT22;8062;53.882;10.642;2023-04-07T07:16:26;11.40;81.00
15926;DHT22;8062;53.882;10.642;2023-04-07T07:17:47;11.30;79.00
15926;DHT22;8062;53.882;10.642;2023-04-07T07:19:06;11.20;75.70
15926;DHT22;8062;53.882;10.642;2023-04-07T07:20:25;11.00;79.10
15926;DHT22;8062;53.882;10.642;2023-04-07T07:21:45;11.10;82.20
15926;DHT22;8062;53.882;10.642;2023-04-07T07:23:05;11.30;80.60
15926;DHT22;8062;53.882;10.642;2023-04-07T07:24:24;11.50;80.90
15926;DHT22;8062;53.882;10.642;2023-04-07T07:25:44;11.40;81.30
15926;DHT22;8062;53.882;10.642;2023-04-07T07:27:03;11.30;83.60
15926;DHT22;8062;53.882;10.642;2023-04-07T07:28:23;11.20;77.20
15926;DHT22;8062;53.882;10.642;2023-04-07T07:29:42;11.30;79.10
15926;DHT22;8062;53.882;10.642;2023-04-07T07:31:11;11.20;76.90
15926;DHT22;8062;53.882;10.642;2023-04-07T07:32:34;11.00;79.00
15926;DHT22;8062;53.882;10.642;2023-04-07T07:33:53;11.00;84.10
15926;DHT22;8062;53.882;10.642;2023-04-07T07:35:13;10.90;80.60
15926;DHT22;8062;53.882;10.642;2023-04-07T07:36:33;10.80;80.30
15926;DHT22;8062;53.882;10.642;2023-04-07T07:37:52;11.00;78.70
15926;DHT22;8062;53.882;10.642;2023-04-07T07:39:12;10.80;78.90
15926;DHT22;8062;53.882;10.642;2023-04-07T07:40:33;10.60;78.60
15926;DHT22;8062;53.882;10.642;2023-04-07T07:41:52;10.60;78.20
15926;DHT22;8062;53.882;10.642;2023-04-07T07:43:12;10.60;82.10
15926;DHT22;8062;53.882;10.642;2023-04-07T07:44:31;10.40;82.20
15926;DHT22;8062;53.882;10.642;2023-04-07T07:45:51;10.40;83.40
15926;DHT22;8062;53.882;10.642;2023-04-07T07:47:10;10.40;80.10
15926;DHT22;8062;53.882;10.642;2023-04-07T07:48:31;10.20;80.40
15926;DHT22;8062;53.882;10.642;2023-04-07T07:49:50;10.00;83.40
15926;DHT22;8062;53.882;10.642;2023-04-07T07:51:09;9.90;80.90
15926;DHT22;8062;53.882;10.642;2023-04-07T07:52:29;9.90;81.70
15926;DHT22;8062;53.882;10.642;2023-04-07T07:53:49;10.00;83.40
15926;DHT22;8062;53.882;10.642;2023-04-07T07:55:08;10.10;82.30
15926;DHT22;8062;53.882;10.642;2023-04-07T07:56:28;10.20;83.80
15926;DHT22;8062;53.882;10.642;2023-04-07T07:57:47;10.20;80.00
15926;DHT22;8062;53.882;10.642;2023-04-07T07:59:07;10.20;83.30
15926;DHT22;8062;53.882;10.642;2023-04-07T08:00:26;10.40;88.40
15926;DHT22;8062;53.882;10.642;2023-04-07T08:01:46;10.50;82.90
15926;DHT22;8062;53.882;10.642;2023-04-07T08:03:06;10.50;80.50
15926;DHT22;8062;53.882;10.642;2023-04-07T08:04:26;10.40;83.80
15926;DHT22;8062;53.882;10.642;2023-04-07T08:05:46;10.50;82.20
15926;DHT22;8062;53.882;10.642;2023-04-07T08:07:06;10.40;85.00
15926;DHT22;8062;53.882;10.642;2023-04-07T08:08:26;10.20;85.30
15926;DHT22;8062;53.882;10.642;2023-04-07T08:09:45;10.00;84.80
15926;DHT22;8062;53.882;10.642;2023-04-07T08:11:04;10.00;85.60
15926;DHT22;8062;53.882;10.642;2023-04-07T08:12:24;10.10;86.00
15926;DHT22;8062;53.882;10.642;2023-04-07T08:13:43;10.00;86.70
15926;DHT22;8062;53.882;10.642;2023-04-07T08:15:05;10.00;88.40
15926;DHT22;8062;53.882;10.642;2023-04-07T08:16:27;10.30;90.00
15926;DHT22;8062;53.882;10.642;2023-04-07T08:17:47;10.40;88.70
15926;DHT22;8062;53.882;10.642;2023-04-07T08:19:06;10.40;85.70
15926;DHT22;8062;53.882;10.642;2023-04-07T08:20:26;10.30;85.70
15926;DHT22;8062;53.882;10.642;2023-04-07T08:21:46;10.20;86.70
15926;DHT22;8062;53.882;10.642;2023-04-07T08:23:05;10.10;86.90
15926;DHT22;8062;53.882;10.642;2023-04-07T08:24:27;10.00;86.60
15926;DHT22;8062;53.882;10.642;2023-04-07T08:25:46;10.00;87.70
15926;DHT22;8062;53.882;10.642;2023-04-07T08:27:06;10.00;87.70
15926;DHT22;8062;53.882;10.642;2023-04-07T08:28:25;10.00;88.50
15926;DHT22;8062;53.882;10.642;2023-04-07T08:29:45;10.00;88.80
15926;DHT22;8062;53.882;10.642;2023-04-07T08:31:04;10.00;89.40
15926;DHT22;8062;53.882;10.642;2023-04-07T08:32:24;10.00;87.90
15926;DHT22;8062;53.882;10.642;2023-04-07T08:33:44;10.00;87.60
15926;DHT22;8062;53.882;10.642;2023-04-07T08:35:04;9.90;90.50
15926;DHT22;8062;53.882;10.642;2023-04-07T08:36:24;9.80;88.30
15926;DHT22;8062;53.882;10.642;2023-04-07T08:37:44;9.70;88.50
15926;DHT22;8062;53.882;10.642;2023-04-07T08:39:03;9.60;88.40
15926;DHT22;8062;53.882;10.642;2023-04-07T08:40:23;9.50;88.30
15926;DHT22;8062;53.882;10.642;2023-04-07T08:41:43;9.30;89.20
15926;DHT22;8062;53.882;10.642;2023-04-07T08:43:08;9.10;88.20
15926;DHT22;8062;53.882;10.642;2023-04-07T08:44:28;9.10;88.40